Time;durP1;ratioP1;P1;durP2;ratioP2;P2;SDS_P1;SDS_P2;PMS_P1;PMS_P2;Temp;Humidity;BMP_temperature;BMP_pressure;BME280_temperature;BME280_humidity;BME280_pressure;Samples;Min_cycle;Max_cycle;Signal;HPM_P1;HPM_P2
2024/03/30 00:01:51;;;;;;;2.15;1.10;;;;;;;6.37;100.00;97380.41;4970153;28;20840;-80
2024/03/30 00:04:17;;;;;;;6.60;1.40;;;;;;;6.35;100.00;97377.16;4990653;28;20086;-80
2024/03/30 00:06:42;;;;;;;6.72;1.83;;;;;;;6.37;100.00;97378.56;5002521;28;20713;-79
2024/03/30 00:09:08;;;;;;;11.60;7.57;;;;;;;6.36;100.00;97379.56;4988048;28;20518;-79
2024/03/30 00:11:34;;;;;;;19.15;8.90;;;;;;;6.38;100.00;97379.38;4985787;28;20461;-79
2024/03/30 00:14:01;;;;;;;13.52;9.27;;;;;;;6.40;100.00;97380.00;4975401;28;20377;-79
2024/03/30 00:16:27;;;;;;;7.47;1.85;;;;;;;6.40;100.00;97391.28;4978709;28;20063;-80
2024/03/30 00:18:57;;;;;;;8.27;1.40;;;;;;;6.39;100.00;97394.94;5004095;28;20033;-79
2024/03/30 00:21:48;;;;;;;4.55;1.17;;;;;;;6.36;100.00;97384.00;4994879;28;20120;-81
2024/03/30 00:24:14;;;;;;;3.90;0.82;;;;;;;6.26;100.00;97398.28;4973215;28;20049;-79
2024/03/30 00:26:39;;;;;;;3.92;0.93;;;;;;;6.22;100.00;97397.06;4990923;28;20021;-79
2024/03/30 00:29:05;;;;;;;5.78;0.93;;;;;;;6.19;100.00;97398.25;5002582;28;20724;-79
2024/03/30 00:31:32;;;;;;;4.82;1.10;;;;;;;6.13;100.00;97406.06;4991294;28;20029;-81
2024/03/30 00:33:57;;;;;;;4.38;1.17;;;;;;;6.05;100.00;97404.41;4985534;28;20041;-80
2024/03/30 00:36:23;;;;;;;4.50;1.05;;;;;;;5.96;100.00;97396.63;4976908;28;20044;-79
2024/03/30 00:38:50;;;;;;;4.53;1.05;;;;;;;5.94;100.00;97398.63;4991958;28;20033;-79
2024/03/30 00:41:15;;;;;;;4.93;0.98;;;;;;;5.89;100.00;97398.38;4963458;28;20041;-79
2024/03/30 00:43:43;;;;;;;10.18;1.10;;;;;;;5.86;100.00;97404.00;4994362;28;20036;-79
2024/03/30 00:46:09;;;;;;;3.40;1.25;;;;;;;5.86;100.00;97404.00;4978387;28;20133;-79
2024/03/30 00:48:35;;;;;;;5.30;1.23;;;;;;;5.87;100.00;97407.44;4990314;28;20120;-79
2024/03/30 00:51:30;;;;;;;5.10;1.15;;;;;;;5.87;100.00;97405.66;4985505;28;20185;-80
2024/03/30 00:54:18;;;;;;;3.03;0.90;;;;;;;5.84;100.00;97409.44;4985985;28;20042;-81
2024/03/30 01:00:10;;;;;;;2.38;1.17;;;;;;;5.82;100.00;97416.69;4971683;28;20053;-81
2024/03/30 01:03:08;;;;;;;6.22;1.23;;;;;;;5.82;100.00;97421.13;4983028;28;20131;-82
2024/03/30 01:05:46;;;;;;;8.00;1.30;;;;;;;5.78;100.00;97418.06;4971935;28;20500;-82
2024/03/30 01:08:39;;;;;;;4.57;1.13;;;;;;;5.75;100.00;97425.50;4990018;28;20034;-81
2024/03/30 01:11:38;;;;;;;;;;;;;;;;;;;;;
2024/03/30 01:14:36;;;;;;;3.50;1.10;;;;;;;5.70;100.00;97434.72;4979454;28;20028;-81
2024/03/30 01:17:14;;;;;;;5.72;1.50;;;;;;;5.70;100.00;97429.50;4953352;28;20029;-81
2024/03/30 01:19:40;;;;;;;1.90;0.90;;;;;;;5.61;100.00;97433.22;4967631;28;20042;-81
2024/03/30 01:22:33;;;;;;;5.55;0.90;;;;;;;5.58;100.00;97428.38;4964414;28;20036;-80
2024/03/30 01:25:13;;;;;;;6.18;1.25;;;;;;;5.62;100.00;97429.63;4978662;28;20026;-85
2024/03/30 01:27:41;;;;;;;8.80;1.33;;;;;;;5.63;100.00;97426.00;4957855;28;20045;-85
2024/03/30 01:30:42;;;;;;;3.00;1.40;;;;;;;5.62;100.00;97418.34;4951664;28;20082;-80
2024/03/30 01:33:11;;;;;;;7.22;1.23;;;;;;;5.55;100.00;97419.09;4970807;28;20054;-79
2024/03/30 01:35:51;;;;;;;8.80;1.50;;;;;;;5.54;100.00;97425.31;4961038;28;20057;-80
2024/03/30 01:38:20;;;;;;;2.65;1.33;;;;;;;5.43;100.00;97425.81;4951362;28;20049;-80
2024/03/30 01:40:46;;;;;;;3.25;1.30;;;;;;;5.40;100.00;97426.97;4971361;28;20076;-81
2024/03/30 01:43:12;;;;;;;2.78;1.23;;;;;;;5.31;100.00;97425.47;4954893;28;20647;-80
2024/03/30 01:45:43;;;;;;;1.95;1.30;;;;;;;5.31;100.00;97428.09;4950390;28;20038;-80
2024/03/30 01:48:11;;;;;;;7.70;2.10;;;;;;;5.29;100.00;97433.53;4972514;28;20129;-80
2024/03/30 01:50:48;;;;;;;5.07;1.40;;;;;;;5.30;100.00;97429.09;4979658;28;20118;-78
2024/03/30 01:53:25;;;;;;;4.03;1.45;;;;;;;5.32;100.00;97424.47;4960271;28;20037;-82
2024/03/30 01:55:53;;;;;;;3.05;1.27;;;;;;;5.32;100.00;97432.31;4965667;28;20034;-81
2024/03/30 01:58:31;;;;;;;6.07;1.55;;;;;;;5.31;100.00;97428.09;4962991;28;20034;-81
2024/03/30 02:00:57;;;;;;;3.38;1.20;;;;;;;5.29;100.00;97433.53;4991742;28;20033;-80
2024/03/30 02:03:24;;;;;;;3.70;1.25;;;;;;;5.29;100.00;97437.94;4965121;28;20065;-80
2024/03/30 02:06:11;;;;;;;;;;;;;;;;;;;;;
2024/03/30 02:08:50;;;;;;;5.93;1.27;;;;;;;5.22;100.00;97446.53;4977051;28;20041;-78
2024/03/30 02:11:52;;;;;;;2.85;1.23;;;;;;;5.20;100.00;97439.88;4959765;28;20152;-80
2024/03/30 02:14:18;;;;;;;11.80;2.33;;;;;;;5.18;100.00;97449.72;4976884;28;20085;-82
2024/03/30 02:17:13;;;;;;;8.18;1.60;;;;;;;5.21;100.00;97458.00;4982585;28;20050;-83
2024/03/30 02:20:13;;;;;;;3.13;1.30;;;;;;;5.17;100.00;97462.00;4955253;28;20034;-83
2024/03/30 02:23:13;;;;;;;11.27;1.67;;;;;;;5.14;100.00;97462.38;4963116;28;20674;-83
2024/03/30 02:25:47;;;;;;;4.78;1.20;;;;;;;5.08;100.00;97479.59;4956377;28;20073;-85
2024/03/30 02:28:15;;;;;;;3.28;1.63;;;;;;;5.06;100.00;97473.75;4981763;28;20073;-85
2024/03/30 02:30:44;;;;;;;4.90;1.17;;;;;;;5.05;100.00;97487.81;4959436;28;20038;-77
2024/03/30 02:33:11;;;;;;;6.97;1.30;;;;;;;5.01;100.00;97481.34;4969452;28;20037;-79
2024/03/30 02:35:36;;;;;;;5.00;1.30;;;;;;;5.01;100.00;97486.56;4964554;28;20068;-79
2024/03/30 02:38:02;;;;;;;6.60;1.42;;;;;;;5.00;100.00;97492.78;4960637;28;20717;-79
2024/03/30 02:40:28;;;;;;;6.20;1.30;;;;;;;5.05;100.00;97494.84;4984838;28;20026;-79
2024/03/30 02:42:54;;;;;;;3.10;1.15;;;;;;;5.02;100.00;97492.59;4965507;28;20153;-79
2024/03/30 02:45:20;;;;;;;4.78;1.33;;;;;;;5.01;100.00;97493.59;4987618;28;20088;-79
2024/03/30 02:47:46;;;;;;;6.72;1.30;;;;;;;4.97;100.00;97493.97;4956657;28;20734;-80
2024/03/30 02:50:12;;;;;;;16.42;1.70;;;;;;;4.96;100.00;97491.53;4989205;28;20097;-79
2024/03/30 02:52:37;;;;;;;4.50;1.50;;;;;;;4.93;100.00;97507.59;4984197;28;20290;-80
2024/03/30 02:55:04;;;;;;;4.10;1.30;;;;;;;4.92;100.00;97498.13;4969738;28;20046;-83
2024/03/30 02:57:29;;;;;;;4.38;1.25;;;;;;;4.92;100.00;97498.13;4984480;28;20033;-84
2024/03/30 02:59:55;;;;;;;3.30;1.38;;;;;;;4.91;100.00;97504.34;4965615;28;20382;-86
2024/03/30 03:02:21;;;;;;;3.53;1.65;;;;;;;4.92;100.00;97498.13;4969553;28;20097;-84
2024/03/30 03:04:48;;;;;;;3.58;1.10;;;;;;;4.90;100.00;97503.56;4974220;28;20144;-84
2024/03/30 03:07:16;;;;;;;3.35;1.50;;;;;;;4.91;100.00;97497.31;4962204;28;20549;-83
2024/03/30 03:10:29;;;;;;;4.03;1.33;;;;;;;4.93;100.00;97502.38;5001381;28;20058;-81
2024/03/30 03:13:05;;;;;;;3.53;1.20;;;;;;;4.89;100.00;97509.75;4970875;28;20042;-81
2024/03/30 03:20:32;;;;;;;3.75;1.10;;;;;;;4.94;100.00;97525.75;5012523;28;20048;-89
2024/03/30 03:32:54;;;;;;;5.35;1.10;;;;;;;4.89;100.00;97517.63;4989250;28;20046;-89
2024/03/30 03:36:25;;;;;;;2.88;1.33;;;;;;;4.81;100.00;97512.50;5006753;28;20576;-88
2024/03/30 03:38:51;;;;;;;4.40;1.30;;;;;;;4.70;100.00;97516.34;4993887;28;20037;-88
2024/03/30 03:41:23;;;;;;;5.97;1.52;;;;;;;4.58;100.00;97516.81;4977191;28;20041;-88
2024/03/30 03:44:14;;;;;;;4.80;2.10;;;;;;;4.55;100.00;97513.72;4968054;28;20080;-91
2024/03/30 03:46:53;;;;;;;5.78;1.60;;;;;;;4.49;100.00;97528.31;4993109;28;20042;-94
2024/03/30 03:49:21;;;;;;;7.57;2.60;;;;;;;4.40;100.00;97527.56;4964175;28;20046;-93
2024/03/30 03:52:03;;;;;;;;;;;;;;;;;;;;;
2024/03/30 03:54:37;;;;;;;2.95;1.70;;;;;;;4.39;100.00;97538.22;4986113;28;20053;-93
2024/03/30 03:57:11;;;;;;;6.70;1.70;;;;;;;4.47;100.00;97532.91;4996053;28;20116;-93
2024/03/30 03:59:50;;;;;;;5.35;1.60;;;;;;;4.53;100.00;97532.22;4987645;28;20037;-86
2024/03/30 04:02:20;;;;;;;3.60;1.15;;;;;;;4.54;100.00;97539.06;4980955;28;20049;-88
2024/03/30 04:04:46;;;;;;;1.25;1.15;;;;;;;4.48;100.00;97539.78;4979874;28;20224;-88
2024/03/30 04:07:12;;;;;;;1.75;1.23;;;;;;;4.50;100.00;97545.66;4976016;28;20052;-88
2024/03/30 04:09:53;;;;;;;2.45;1.30;;;;;;;4.46;100.00;97532.09;4987151;28;20038;-92
2024/03/30 04:12:35;;;;;;;5.68;2.00;;;;;;;4.46;100.00;97528.66;4981657;28;20041;-92
2024/03/30 04:15:33;;;;;;;3.92;1.88;;;;;;;4.43;100.00;97527.22;4978693;28;20766;-88
2024/03/30 04:18:49;;;;;;;4.50;1.20;;;;;;;4.32;100.00;97523.22;4987140;28;20029;-89
2024/03/30 04:21:15;;;;;;;1.77;1.08;;;;;;;4.21;100.00;97536.72;4997675;28;20474;-88
2024/03/30 04:23:42;;;;;;;3.13;1.55;;;;;;;4.19;100.00;97538.69;4997729;28;20037;-88
2024/03/30 04:26:18;;;;;;;6.10;1.67;;;;;;;4.09;100.00;97539.75;4981824;28;20029;-92
2024/03/30 04:28:55;;;;;;;6.78;1.40;;;;;;;3.99;100.00;97533.13;4982081;28;20041;-88
2024/03/30 04:31:35;;;;;;;5.25;2.13;;;;;;;3.96;100.00;97532.50;4980989;28;20088;-89
2024/03/30 04:34:04;;;;;;;4.97;1.20;;;;;;;3.91;100.00;97528.75;4976691;28;20072;-88
2024/03/30 04:36:30;;;;;;;8.18;1.90;;;;;;;3.80;100.00;97512.53;4979861;28;20063;-88
2024/03/30 04:38:59;;;;;;;3.92;1.42;;;;;;;3.83;100.00;97521.81;4993771;28;20041;-88
2024/03/30 04:41:50;;;;;;;4.72;1.83;;;;;;;3.93;100.00;97521.56;4986278;28;20037;-91
2024/03/30 04:44:55;;;;;;;4.85;1.52;;;;;;;3.97;100.00;97521.06;4951583;28;20038;-90
2024/03/30 04:47:46;;;;;;;9.68;1.88;;;;;;;4.06;100.00;97526.22;4940900;28;20573;-90
2024/03/30 04:50:12;;;;;;;5.60;1.73;;;;;;;3.95;100.00;97522.22;4956306;28;20034;-89
2024/03/30 04:52:59;;;;;;;2.25;1.20;;;;;;;3.94;100.00;97517.97;4937212;28;20035;-89
2024/03/30 04:55:27;;;;;;;3.92;1.40;;;;;;;4.01;100.00;97518.91;4941077;28;20536;-89
2024/03/30 04:57:53;;;;;;;5.22;1.80;;;;;;;4.01;100.00;97524.13;4940575;28;20123;-89
2024/03/30 05:00:43;;;;;;;8.35;1.67;;;;;;;4.00;100.00;97519.88;4956451;28;20039;-93
2024/03/30 05:03:10;;;;;;;5.43;1.30;;;;;;;3.97;100.00;97526.28;4985051;28;20046;-93
2024/03/30 05:05:40;;;;;;;5.78;1.33;;;;;;;3.89;100.00;97526.31;4955506;28;20049;-89
2024/03/30 05:08:10;;;;;;;7.28;1.50;;;;;;;3.90;100.00;97532.38;4956402;28;20034;-89
2024/03/30 05:11:29;;;;;;;5.15;1.40;;;;;;;3.90;100.00;97529.75;4960998;28;20096;-89
2024/03/30 05:14:00;;;;;;;3.65;1.52;;;;;;;3.93;100.00;97516.34;4951122;28;20039;-91
2024/03/30 05:16:35;;;;;;;3.40;1.30;;;;;;;3.92;100.00;97523.38;4986673;28;20048;-91
2024/03/30 05:22:42;;;;;;;2.63;1.30;;;;;;;3.84;100.00;97521.63;5014503;28;20524;-91
2024/03/30 05:25:39;;;;;;;2.83;1.10;;;;;;;3.80;100.00;97516.91;4989708;28;20060;-95
2024/03/30 05:36:24;;;;;;;11.05;2.65;;;;;;;3.87;100.00;97532.72;5002401;28;20481;-91
2024/03/30 05:39:16;;;;;;;3.55;0.95;;;;;;;3.85;100.00;97525.84;4983201;28;20091;-93
2024/03/30 05:42:38;;;;;;;6.40;1.05;;;;;;;3.89;100.00;97528.13;4998744;28;20482;-93
2024/03/30 05:45:47;;;;;;;2.30;1.00;;;;;;;3.89;100.00;97535.97;4981017;28;20049;-92
2024/03/30 05:48:16;;;;;;;3.97;1.20;;;;;;;3.82;100.00;97525.41;4988647;28;20120;-90
2024/03/30 05:50:42;;;;;;;5.85;1.20;;;;;;;3.87;100.00;97537.94;4979873;28;20655;-94
2024/03/30 05:53:08;;;;;;;9.77;1.00;;;;;;;3.87;100.00;97536.13;4973248;28;20038;-92
2024/03/30 05:55:34;;;;;;;10.32;1.35;;;;;;;3.85;100.00;97536.31;5001655;28;20053;-90
2024/03/30 05:58:03;;;;;;;5.63;1.10;;;;;;;3.87;100.00;97543.97;4982140;28;20025;-83
2024/03/30 06:00:30;;;;;;;6.32;1.15;;;;;;;3.83;100.00;97540.09;4991639;28;20791;-85
2024/03/30 06:02:57;;;;;;;5.97;1.38;;;;;;;3.83;100.00;97546.13;4997692;28;20029;-84
2024/03/30 06:05:23;;;;;;;10.10;1.38;;;;;;;3.75;100.00;97537.53;4978248;28;21362;-84
2024/03/30 06:07:49;;;;;;;7.88;1.05;;;;;;;3.77;100.00;97552.06;4991188;28;20042;-84
2024/03/30 06:10:14;;;;;;;7.07;1.13;;;;;;;3.73;100.00;97537.69;4992942;28;20041;-81
2024/03/30 06:12:40;;;;;;;8.35;1.35;;;;;;;3.74;100.00;97544.56;5006641;28;20508;-81
2024/03/30 06:15:06;;;;;;;7.43;0.93;;;;;;;3.74;100.00;97543.75;4984592;28;20533;-82
2024/03/30 06:17:36;;;;;;;7.90;1.27;;;;;;;3.82;100.00;97541.09;4991152;28;20029;-82
2024/03/30 06:20:07;;;;;;;9.00;2.05;;;;;;;3.82;100.00;97549.72;4972700;28;20144;-85
2024/03/30 06:22:33;;;;;;;6.68;0.98;;;;;;;3.88;100.00;97557.84;4978615;28;20029;-85
2024/03/30 06:24:59;;;;;;;5.93;1.05;;;;;;;3.92;100.00;97565.19;4991745;28;20094;-81
2024/03/30 06:27:25;;;;;;;10.32;1.95;;;;;;;3.94;100.00;97555.38;5009564;28;20116;-82
2024/03/30 06:29:51;;;;;;;8.20;1.08;;;;;;;4.02;100.00;97561.53;5005694;28;20121;-82
2024/03/30 06:32:17;;;;;;;5.00;1.17;;;;;;;4.05;100.00;97559.38;5003421;28;20038;-81
2024/03/30 06:34:43;;;;;;;7.90;1.48;;;;;;;4.12;100.00;97561.31;4991398;28;20041;-82
2024/03/30 06:37:09;;;;;;;10.57;1.20;;;;;;;4.20;100.00;97569.88;5003706;28;20029;-82
2024/03/30 06:45:03;;;;;;;6.05;1.08;;;;;;;4.77;100.00;97569.59;4989379;28;20064;-81
2024/03/30 06:47:30;;;;;;;8.73;1.42;;;;;;;4.94;100.00;97585.94;4990344;28;20095;-82
2024/03/30 06:49:55;;;;;;;8.60;1.25;;;;;;;5.13;100.00;97575.16;5028032;28;20017;-83
2024/03/30 06:52:21;;;;;;;19.60;1.60;;;;;;;5.19;100.00;97579.66;4988465;28;20038;-85
2024/03/30 06:54:47;;;;;;;9.52;1.30;;;;;;;5.16;100.00;97577.41;5007558;28;20046;-83
2024/03/30 06:57:13;;;;;;;9.02;1.00;;;;;;;5.13;100.00;97581.16;4981698;28;20033;-83
2024/03/30 06:59:38;;;;;;;5.95;1.02;;;;;;;5.08;100.00;97589.56;5007348;28;20529;-81
2024/03/30 07:02:04;;;;;;;9.85;1.23;;;;;;;5.12;100.00;97590.03;5008667;28;20041;-81
2024/03/30 07:04:43;;;;;;;10.07;1.05;;;;;;;5.27;100.00;97584.78;4982665;28;20038;-80
2024/03/30 07:07:09;;;;;;;9.98;1.05;;;;;;;5.65;100.00;97594.34;4988995;28;20044;-82
2024/03/30 07:09:34;;;;;;;6.90;1.00;;;;;;;6.01;100.00;97595.34;4996395;28;20037;-83
2024/03/30 07:12:00;;;;;;;16.10;1.80;;;;;;;6.36;100.00;97586.81;4990482;28;20069;-81
2024/03/30 07:14:27;;;;;;;8.93;1.55;;;;;;;6.73;100.00;97594.59;4990114;28;20030;-83
2024/03/30 07:16:55;;;;;;;8.43;1.33;;;;;;;6.95;100.00;97589.31;4982516;28;20099;-81
2024/03/30 07:19:22;;;;;;;10.20;1.90;;;;;;;7.20;100.00;97589.66;4996723;28;20036;-82
2024/03/30 07:21:48;;;;;;;12.95;2.15;;;;;;;7.39;100.00;97587.34;4986106;28;20036;-81
2024/03/30 07:24:14;;;;;;;7.22;0.98;;;;;;;7.53;100.00;97590.03;4993712;28;20490;-80
2024/03/30 07:26:40;;;;;;;8.55;0.98;;;;;;;7.66;100.00;97592.72;4990246;28;20134;-79
2024/03/30 07:29:06;;;;;;;11.50;1.30;;;;;;;7.64;100.00;97597.38;4992374;28;20596;-80
2024/03/30 07:31:32;;;;;;;11.43;1.20;;;;;;;7.65;100.00;97606.03;5006702;28;20107;-80
2024/03/30 07:33:57;;;;;;;9.63;1.10;;;;;;;7.65;100.00;97601.63;5001280;28;20422;-82
2024/03/30 07:36:23;;;;;;;11.48;1.75;;;;;;;7.67;100.00;97604.88;5007851;28;20064;-82
2024/03/30 07:38:49;;;;;;;8.90;1.17;;;;;;;7.67;100.00;97596.16;4973092;28;20040;-82
2024/03/30 07:42:02;;;;;;;8.27;1.02;;;;;;;7.69;100.00;97604.66;5014497;28;20034;-84
2024/03/30 07:44:29;;;;;;;11.77;1.52;;;;;;;7.63;100.00;97611.50;4999080;28;20940;-80
2024/03/30 07:46:55;;;;;;;5.97;0.90;;;;;;;7.68;100.00;97601.22;5008593;28;20034;-80
2024/03/30 07:49:21;;;;;;;8.93;1.55;;;;;;;7.71;100.00;97593.97;4993351;28;20025;-82
2024/03/30 07:51:47;;;;;;;7.38;1.27;;;;;;;7.75;100.00;97617.03;4988271;28;20116;-82
2024/03/30 07:54:13;;;;;;;5.95;1.10;;;;;;;7.68;100.00;97614.38;4988841;28;20243;-82
2024/03/30 07:56:38;;;;;;;6.93;1.75;;;;;;;7.59;100.00;97605.03;4989476;28;20087;-82
2024/03/30 07:59:04;;;;;;;8.70;1.30;;;;;;;7.51;100.00;97603.38;4996121;28;20485;-81
2024/03/30 08:01:31;;;;;;;8.40;1.40;;;;;;;7.49;100.00;97604.56;4990659;28;20480;-80
2024/03/30 08:03:57;;;;;;;6.63;1.05;;;;;;;7.55;100.00;97609.84;4969455;28;20037;-80
2024/03/30 08:06:23;;;;;;;8.77;1.80;;;;;;;7.60;100.00;97611.09;4989440;28;20402;-79
2024/03/30 08:08:49;;;;;;;6.05;1.70;;;;;;;7.59;100.00;97607.66;4985262;28;20497;-80
2024/03/30 08:11:15;;;;;;;7.97;0.98;;;;;;;7.60;100.00;97611.09;4989315;28;20021;-80
2024/03/30 08:13:41;;;;;;;5.03;0.80;;;;;;;7.54;100.00;97610.88;4982530;28;20121;-82
2024/03/30 08:16:06;;;;;;;6.07;0.88;;;;;;;7.54;100.00;97608.25;5024451;28;20520;-81
2024/03/30 08:18:34;;;;;;;6.63;0.70;;;;;;;7.57;100.00;97605.22;4988915;28;20386;-84
2024/03/30 08:21:04;;;;;;;6.68;0.75;;;;;;;7.66;100.00;97603.22;4976138;28;20037;-79
2024/03/30 08:23:31;;;;;;;8.65;1.20;;;;;;;7.69;100.00;97608.09;4989985;28;20033;-80
2024/03/30 08:25:57;;;;;;;5.35;0.90;;;;;;;7.72;100.00;97616.59;4990294;28;20049;-81
2024/03/30 08:28:23;;;;;;;10.32;1.17;;;;;;;7.81;100.00;97604.91;4974156;28;20044;-83
2024/03/30 08:30:49;;;;;;;9.70;0.80;;;;;;;7.88;100.00;97608.38;4987796;28;20040;-81
2024/03/30 08:33:16;;;;;;;7.22;0.90;;;;;;;8.04;100.00;97611.66;5002820;28;20037;-80
2024/03/30 08:35:54;;;;;;;7.30;0.88;;;;;;;8.11;100.00;97616.91;4982662;28;20037;-80
2024/03/30 08:38:20;;;;;;;7.05;0.80;;;;;;;8.11;100.00;97619.56;4987867;28;20037;-81
2024/03/30 08:40:48;;;;;;;9.45;1.00;;;;;;;8.17;100.00;97614.31;4973371;28;20036;-80
2024/03/30 08:43:14;;;;;;;7.65;0.82;;;;;;;8.21;100.00;97620.00;4978611;28;20036;-81
2024/03/30 08:45:41;;;;;;;6.93;0.73;;;;;;;8.27;100.00;97627.09;4972276;28;20037;-81
2024/03/30 08:48:12;;;;;;;7.28;1.23;;;;;;;8.29;100.00;97632.97;4991416;28;20041;-81
2024/03/30 08:50:37;;;;;;;5.65;1.65;;;;;;;8.26;100.00;97632.56;4979400;28;20026;-82
2024/03/30 08:53:04;;;;;;;3.92;1.13;;;;;;;8.34;100.00;97642.91;4992908;28;20044;-81
2024/03/30 08:55:29;;;;;;;7.38;0.88;;;;;;;8.47;100.00;97652.66;4989177;28;20607;-82
2024/03/30 08:57:55;;;;;;;10.82;1.20;;;;;;;8.42;100.00;97641.91;4983909;28;20120;-85
2024/03/30 09:00:24;;;;;;;6.57;0.73;;;;;;;8.28;100.00;97633.97;5001658;28;20494;-84
2024/03/30 09:02:57;;;;;;;6.57;0.88;;;;;;;8.21;100.00;97651.56;5002857;28;20037;-81
2024/03/30 09:05:32;;;;;;;6.18;0.73;;;;;;;8.16;100.00;97649.53;5000740;28;20127;-81
2024/03/30 09:08:08;;;;;;;4.53;0.70;;;;;;;8.14;100.00;97645.47;4986296;28;20514;-83
2024/03/30 09:10:38;;;;;;;9.52;1.10;;;;;;;8.27;100.00;97648.16;4974521;28;20033;-82
2024/03/30 09:13:22;;;;;;;4.75;0.70;;;;;;;8.48;100.00;97638.47;4989963;28;20387;-81
2024/03/30 09:16:09;;;;;;;6.57;0.80;;;;;;;8.89;100.00;97641.97;5002402;28;20144;-86
2024/03/30 09:18:39;;;;;;;7.82;1.20;;;;;;;9.11;100.00;97646.22;4968094;28;20041;-84
2024/03/30 09:21:05;;;;;;;7.45;0.93;;;;;;;9.09;100.00;97646.44;4964502;28;20069;-79
2024/03/30 09:23:56;;;;;;;13.93;1.75;;;;;;;9.24;100.00;97632.19;4987526;28;20069;-82
2024/03/30 09:26:35;;;;;;;9.10;1.08;;;;;;;9.34;100.00;97639.69;5005033;28;20026;-82
2024/03/30 09:29:37;;;;;;;7.25;1.10;;;;;;;9.45;100.00;97636.41;4969484;28;20135;-84
2024/03/30 09:32:20;;;;;;;8.32;1.05;;;;;;;9.47;100.00;97637.03;4979678;28;20040;-80
2024/03/30 09:39:00;;;;;;;8.02;0.65;;;;;;;9.27;100.00;97634.44;4947293;28;20050;-80
2024/03/30 09:42:07;;;;;;;9.60;2.03;;;;;;;9.28;100.00;97628.97;4931265;28;20479;-80
2024/03/30 09:45:11;;;;;;;6.45;1.10;;;;;;;9.34;100.00;97629.97;4888198;28;20097;-80
2024/03/30 09:48:26;;;;;;;5.15;0.90;;;;;;;9.58;100.00;97632.94;4930443;28;20043;-82
2024/03/30 09:50:54;;;;;;;5.57;1.02;;;;;;;9.68;100.00;97633.31;4922774;28;20183;-80
2024/03/30 09:53:47;;;;;;;8.25;0.55;;;;;;;9.68;100.00;97635.16;4986407;28;20042;-81
2024/03/30 09:56:58;;;;;;;6.95;2.08;;;;;;;9.51;100.00;97640.88;4969900;28;20054;-82
2024/03/30 09:59:39;;;;;;;8.02;1.13;;;;;;;9.19;100.00;97638.09;4905484;29;20113;-81
2024/03/30 10:02:05;;;;;;;8.48;1.15;;;;;;;9.12;100.00;97646.03;4942422;28;20040;-81
2024/03/30 10:04:31;;;;;;;6.32;1.23;;;;;;;9.07;100.00;97640.53;4981862;28;20033;-84
2024/03/30 10:06:59;;;;;;;7.78;0.93;;;;;;;9.08;100.00;97650.06;4968576;28;20112;-83
2024/03/30 10:09:28;;;;;;;5.60;0.85;;;;;;;9.01;100.00;97655.34;4954559;28;20034;-83
2024/03/30 10:12:31;;;;;;;;;;;;;;;;;;;;;
2024/03/30 10:15:35;;;;;;;3.38;0.57;;;;;;;8.76;100.00;97676.22;4959531;28;20545;-80
2024/03/30 10:22:07;;;;;;;0.47;0.30;;;;;;;8.25;100.00;97667.78;5002994;28;20065;-79
2024/03/30 10:30:04;;;;;;;6.55;0.50;;;;;;;8.05;100.00;97682.50;4963362;28;20061;-80
2024/03/30 10:42:44;;;;;;;9.50;0.97;;;;;;;8.09;100.00;97698.66;4950285;28;20054;-80
2024/03/30 10:46:41;;;;;;;5.82;0.60;;;;;;;8.19;100.00;97693.03;4943466;28;20558;-79
2024/03/30 10:59:28;;;;;;;3.10;0.77;;;;;;;8.67;100.00;97678.22;4887765;29;20140;-79
2024/03/30 11:07:29;;;;;;;5.25;0.70;;;;;;;9.20;100.00;97673.16;5017183;28;20110;-80
2024/03/30 11:11:01;;;;;;;6.85;0.77;;;;;;;9.26;100.00;97667.06;5027474;28;20049;-80
2024/03/30 11:15:10;;;;;;;;;;;;;;;;;;;;;
2024/03/30 11:23:08;;;;;;;8.70;0.60;;;;;;;10.02;100.00;97650.81;4955429;28;20042;-85
2024/03/30 11:26:39;;;;;;;6.53;0.60;;;;;;;10.30;100.00;97679.53;4971796;28;20129;-83
2024/03/30 11:37:08;;;;;;;2.83;0.63;;;;;;;10.67;100.00;97660.44;4952668;28;20121;-81
2024/03/30 11:40:44;;;;;;;4.25;0.85;;;;;;;10.79;100.00;97652.66;4968938;28;20039;-81
2024/03/30 11:43:21;;;;;;;6.95;0.98;;;;;;;10.95;100.00;97641.75;4933864;28;20039;-80
2024/03/30 11:45:48;;;;;;;3.63;0.88;;;;;;;11.01;100.00;97654.09;4967265;28;20479;-89
2024/03/30 11:49:18;;;;;;;4.00;0.75;;;;;;;11.16;100.00;97673.06;4935642;28;20074;-93
2024/03/30 11:52:15;;;;;;;5.13;0.35;;;;;;;10.99;100.00;97649.03;4951790;28;20835;-92
2024/03/30 11:54:55;;;;;;;3.13;0.52;;;;;;;10.93;100.00;97655.19;4976715;28;20549;-92
2024/03/30 12:05:39;;;;;;;6.90;0.50;;;;;;;11.17;100.00;97655.38;4983904;28;20478;-91
2024/03/30 12:08:39;;;;;;;3.20;0.50;;;;;;;11.03;100.00;97662.63;4959974;28;20486;-89
2024/03/30 12:12:13;;;;;;;6.30;1.07;;;;;;;10.93;100.00;97676.31;4968554;28;20116;-93
2024/03/30 12:15:50;;;;;;;3.67;0.75;;;;;;;10.89;100.00;97675.13;4960781;28;20089;-88
2024/03/30 12:18:50;;;;;;;4.72;0.65;;;;;;;10.77;100.00;97688.22;4955964;28;20039;-91
2024/03/30 12:22:25;;;;;;;4.22;0.57;;;;;;;10.66;100.00;97687.91;4976242;28;20056;-85
2024/03/30 12:25:42;;;;;;;6.88;0.70;;;;;;;10.63;100.00;97684.84;5002744;28;20034;-88
2024/03/30 12:28:38;;;;;;;7.72;0.85;;;;;;;10.84;100.00;97686.34;4965963;28;20049;-89
2024/03/30 12:32:26;;;;;;;3.38;0.68;;;;;;;11.13;100.00;97680.66;4995623;28;20087;-89
2024/03/30 12:39:33;;;;;;;6.82;0.65;;;;;;;11.39;100.00;97684.06;4973106;28;20037;-92
2024/03/30 12:42:14;;;;;;;7.88;0.80;;;;;;;11.39;100.00;97692.00;4992022;28;20025;-90
2024/03/30 12:44:40;;;;;;;2.63;0.90;;;;;;;11.16;100.00;97669.63;4993363;28;20037;-92
2024/03/30 12:47:23;;;;;;;7.13;0.98;;;;;;;11.05;100.00;97681.72;4977467;28;20038;-87
2024/03/30 12:49:55;;;;;;;6.15;0.65;;;;;;;11.12;100.00;97684.28;4961354;28;20096;-90
2024/03/30 12:52:53;;;;;;;4.03;0.45;;;;;;;11.14;100.00;97680.44;4982960;28;20038;-89
2024/03/30 12:55:34;;;;;;;1.98;0.40;;;;;;;11.33;100.00;97684.94;4969041;28;20041;-90
2024/03/30 13:17:31;;;;;;;9.75;0.68;;;;;;;12.16;100.00;97668.81;4950895;28;20041;-90
2024/03/30 13:20:49;;;;;;;3.55;0.80;;;;;;;12.33;100.00;97671.63;4920317;28;20049;-89
2024/03/30 13:23:23;;;;;;;2.60;0.47;;;;;;;12.52;100.00;97674.22;4928672;28;20321;-91
2024/03/30 13:25:55;;;;;;;7.43;0.60;;;;;;;12.57;100.00;97663.75;4931723;28;22019;-88
2024/03/30 13:29:15;;;;;;;4.28;0.77;;;;;;;12.30;100.00;97663.31;4986115;28;20045;-91
2024/03/30 13:35:40;;;;;;;4.97;0.50;;;;;;;12.08;100.00;97682.34;4993985;28;20038;-91
2024/03/30 13:38:34;;;;;;;5.78;0.63;;;;;;;12.22;100.00;97697.03;4981888;28;20050;-94
2024/03/30 13:41:06;;;;;;;2.28;0.40;;;;;;;12.22;100.00;97689.09;4992765;28;20045;-92
2024/03/30 13:43:41;;;;;;;7.18;0.57;;;;;;;12.33;100.00;97687.53;4965925;28;20121;-91
2024/03/30 14:03:30;;;;;;;4.28;0.90;;;;;;;12.25;100.00;97677.22;4967398;28;20061;-94
2024/03/30 14:06:05;;;;;;;5.20;0.60;;;;;;;12.28;100.00;97682.09;4968938;28;20435;-93
2024/03/30 14:09:01;;;;;;;7.00;0.70;;;;;;;12.41;100.00;97694.34;5002436;28;20116;-94
2024/03/30 14:11:54;;;;;;;4.20;0.68;;;;;;;12.35;100.00;97689.94;5011255;28;20051;-90
2024/03/30 14:14:24;;;;;;;6.75;0.90;;;;;;;12.41;100.00;97694.34;5001322;28;20072;-95
2024/03/30 14:20:51;;;;;;;7.57;1.33;;;;;;;12.48;100.00;97689.78;5016812;28;20037;-95
2024/03/30 14:23:30;;;;;;;3.53;0.43;;;;;;;12.44;100.00;97699.19;5015898;28;20048;-94
2024/03/30 14:26:12;;;;;;;2.45;0.50;;;;;;;12.30;100.00;97721.59;5008186;28;20045;-94
2024/03/30 14:29:44;;;;;;;;;;;;;;;;;;;;;
2024/03/30 14:33:52;;;;;;;4.22;0.57;;;;;;;12.03;100.00;97712.09;5030069;28;20068;-93
2024/03/30 14:37:08;;;;;;;3.20;0.47;;;;;;;12.23;100.00;97719.81;4956561;28;20065;-94
2024/03/30 14:40:51;;;;;;;6.20;0.60;;;;;;;12.31;100.00;97713.41;4987571;28;20128;-93
2024/03/30 14:44:53;;;;;;;;;;;;;;;;;;;;;
2024/03/30 14:55:24;;;;;;;;;;;;;;;12.52;100.00;97716.63;4939117;29;20090;-95
2024/03/30 14:58:37;;;;;;;;;;;;;;;12.27;100.00;97686.59;4919537;28;19915;-93
2024/03/30 15:05:51;;;;;;;4.15;0.60;;;;;;;11.96;100.00;97722.75;4921108;28;20102;-95
2024/03/30 15:09:08;;;;;;;3.92;0.80;;;;;;;12.12;100.00;97694.91;4955163;28;20039;-95
2024/03/30 15:11:49;;;;;;;3.10;0.35;;;;;;;12.16;100.00;97703.22;4969608;28;20092;-94
2024/03/30 15:18:34;;;;;;;4.15;0.80;;;;;;;12.33;100.00;97718.50;4995151;28;20475;-94
2024/03/30 15:21:21;;;;;;;2.78;1.05;;;;;;;12.27;100.00;97710.41;4981607;28;20045;-92